Kezdőlap
METAR-TAF:

METAR-TAF

Repülőterek :

Airlake Airport

Minneapolis-Lakeville, Minnesota, Amerikai Egyesült Államok

földrajzi szélesség: 44-37-40N, földrajzi hosszúság: 093-13-41W, magasság: 293 m

Jelenlegi meteorológiai megfigyelések

A jelentés 7 perccel ezelõtt készült, 13:55 UTC
Szélcsend
Hőmérséklet -21°C
Páratartalom 84%
Légköri nyomás 1019 hPa
Látótávolság: 16.1 km

METAR: KLVN 151355Z AUTO 00000KT 10SM M21/M23 A3009 RMK AO2

Idő: 08:02 (14:02 UTC)


TAF: hiányzik

Meteorológiai megfigyelések és előrejelzések több, mint 4000 repülőtéren (METAR és TAF jelentéseket).

A térképen piros és sárga pontok jelzik az elérhető meteorológiai állomásokat.

Mozgassa az egeret a pont fölött, hogy megjelenjen az állomás neve.

Azután kattintson az időjárási megfigyelések és előrejelzések megtekintéséhez.

A térkép megváltoztatása: kattintson a fekete keresztel jelölt zöld gombra ráközelítéshez, a vonallal jelölt zöld gombra távolításhoz, vagy a zöld nyilakra a szomszédos térképek eléréséhez.


METAR-TAF: